Time;durP1;ratioP1;P1;durP2;ratioP2;P2;SDS_P1;SDS_P2;PMS_P1;PMS_P2;Temp;Humidity;BMP_temperature;BMP_pressure;BME280_temperature;BME280_humidity;BME280_pressure;Samples;Min_cycle;Max_cycle;Signal;HPM_P1;HPM_P2
2023/08/13 00:02:02;;;;;;;11.48;2.40;;;20.20;72.50;;;;;;5794607;24;20253;-67
2023/08/13 00:26:23;;;;;;;8.00;1.65;;;20.10;72.70;;;;;;5952349;24;20201;-67
2023/08/13 00:28:52;;;;;;;10.80;2.45;;;20.20;72.80;;;;;;5952317;24;20175;-59
2023/08/13 01:12:55;;;;;;;9.38;2.20;;;20.10;72.90;;;;;;5952201;24;20299;-67
2023/08/13 01:15:29;;;;;;;9.60;1.77;;;20.10;72.90;;;;;;5987283;23;20184;-67
2023/08/13 01:42:36;;;;;;;9.55;2.25;;;20.10;72.80;;;;;;5842882;24;20221;-68
2023/08/13 02:08:35;;;;;;;11.38;2.22;;;20.10;72.70;;;;;;5817316;24;20215;-69
2023/08/13 02:18:01;;;;;;;6.45;1.70;;;20.10;72.70;;;;;;5733107;24;20761;-69
2023/08/13 02:24:28;;;;;;;5.32;1.80;;;20.10;72.70;;;;;;5842862;24;20647;-69
2023/08/13 02:43:32;;;;;;;7.75;1.70;;;20.10;72.80;;;;;;5877826;24;20207;-63
2023/08/13 02:46:03;;;;;;;7.20;2.47;;;20.10;72.80;;;;;;5951227;24;20198;-69
2023/08/13 03:01:47;;;;;;;;;;;;;;;;;;;;;
2023/08/13 03:27:41;;;;;;;6.05;1.80;;;20.10;72.90;;;;;;5797929;24;20438;-66
2023/08/13 03:37:09;;;;;;;8.23;1.90;;;20.10;72.80;;;;;;5895403;24;20726;-70
2023/08/13 03:39:37;;;;;;;5.07;1.85;;;20.10;72.80;;;;;;5829699;24;20177;-68
2023/08/13 05:08:11;;;;;;;6.45;1.80;;;20.00;72.60;;;;;;5919908;24;20204;-69
2023/08/13 05:17:58;;;;;;;;;;;;;;;;;;;;;
2023/08/13 06:27:44;;;;;;;6.60;1.90;;;20.00;72.60;;;;;;5899840;24;20194;-69
2023/08/13 06:46:59;;;;;;;6.72;2.00;;;20.00;72.70;;;;;;5955488;23;20206;-68
2023/08/13 06:49:38;;;;;;;;;;;;;;;;;;;;;
2023/08/13 06:52:54;;;;;;;8.35;2.10;;;20.00;72.70;;;;;;5887413;24;20272;-69
2023/08/13 07:20:05;;;;;;;4.82;1.42;;;19.90;72.40;;;;;;5923669;24;20190;-69
2023/08/13 08:14:16;;;;;;;5.53;1.50;;;19.90;71.50;;;;;;5869131;24;20193;-69
2023/08/13 08:20:50;;;;;;;5.75;1.40;;;19.90;71.40;;;;;;5850241;24;20195;-69
2023/08/13 08:42:35;;;;;;;4.82;1.33;;;19.90;71.50;;;;;;5726000;25;20718;-69
2023/08/13 08:45:04;;;;;;;9.43;1.70;;;19.90;71.80;;;;;;5738715;24;20213;-69
2023/08/13 08:47:35;;;;;;;3.88;1.45;;;19.90;71.50;;;;;;5773287;24;20286;-69
2023/08/13 09:16:29;;;;;;;5.03;2.13;;;19.90;70.70;;;;;;5984889;23;20203;-69
2023/08/13 09:18:57;;;;;;;6.85;1.50;;;19.90;70.70;;;;;;6036083;23;20263;-68
2023/08/13 09:24:58;;;;;;;;;;;;;;;;;;;;;
2023/08/13 11:02:21;;;;;;;8.57;2.20;;;20.00;72.00;;;;;;5772325;24;20238;-68
2023/08/13 11:05:27;;;;;;;8.77;2.38;;;20.00;71.90;;;;;;5919513;24;20176;-68
2023/08/13 11:18:33;;;;;;;;;;;;;;;;;;;;;
2023/08/13 11:21:13;;;;;;;4.80;1.88;;;20.10;70.90;;;;;;5779715;24;20260;-68
2023/08/13 11:26:48;;;;;;;5.72;2.45;;;20.10;70.70;;;;;;5764480;24;20242;-68
2023/08/13 11:43:11;;;;;;;8.23;2.08;;;20.10;69.90;;;;;;5752843;24;20224;-68
2023/08/13 11:45:40;;;;;;;8.30;2.30;;;20.10;70.30;;;;;;5856380;24;20235;-68
2023/08/13 11:52:15;;;;;;;10.75;2.25;;;20.20;70.30;;;;;;5897883;24;20208;-68
2023/08/13 11:54:52;;;;;;;6.70;2.08;;;20.20;70.30;;;;;;5892012;24;20599;-69
2023/08/13 12:00:04;;;;;;;6.00;1.90;;;20.20;69.70;;;;;;6002198;23;20192;-68
2023/08/13 12:02:34;;;;;;;8.30;2.50;;;20.20;69.40;;;;;;6008529;23;20194;-68
2023/08/13 12:05:01;;;;;;;10.02;2.42;;;20.20;69.40;;;;;;6008485;23;20195;-57
2023/08/13 12:07:39;;;;;;;3.22;1.70;;;20.20;69.20;;;;;;6008551;23;20197;-68
2023/08/13 12:10:07;;;;;;;6.03;2.45;;;20.20;69.50;;;;;;6115919;23;20252;-69
2023/08/13 12:12:34;;;;;;;10.40;2.13;;;20.20;69.50;;;;;;6126732;23;20273;-68
2023/08/13 12:15:00;;;;;;;7.35;2.20;;;20.30;69.50;;;;;;6126111;23;20698;-69
2023/08/13 12:17:27;;;;;;;7.80;2.17;;;20.20;69.40;;;;;;6126590;23;20194;-68
2023/08/13 12:19:54;;;;;;;5.00;1.67;;;20.20;69.40;;;;;;6126164;23;20559;-69
2023/08/13 12:22:21;;;;;;;5.10;1.98;;;20.30;69.50;;;;;;6126161;23;20273;-68
2023/08/13 12:24:49;;;;;;;6.50;1.80;;;20.20;69.30;;;;;;6126373;23;20229;-68
2023/08/13 12:27:16;;;;;;;4.30;1.55;;;20.30;69.50;;;;;;6126076;23;20226;-68
2023/08/13 12:29:43;;;;;;;6.90;1.90;;;20.30;69.50;;;;;;6126411;23;20246;-69
2023/08/13 12:32:10;;;;;;;6.10;1.85;;;20.20;68.90;;;;;;6126031;23;20281;-69
2023/08/13 12:34:37;;;;;;;5.53;1.80;;;20.30;69.00;;;;;;6126364;23;20241;-68
2023/08/13 12:37:17;;;;;;;5.90;1.77;;;20.30;69.10;;;;;;6126342;23;20229;-69
2023/08/13 12:39:44;;;;;;;6.10;1.85;;;20.20;68.90;;;;;;6126316;23;20174;-68
2023/08/13 12:42:13;;;;;;;7.82;1.80;;;20.30;69.00;;;;;;6135984;23;20252;-68
2023/08/13 12:44:40;;;;;;;5.00;1.98;;;20.30;69.70;;;;;;6155637;23;20209;-68
2023/08/13 12:47:07;;;;;;;5.72;1.95;;;20.30;68.90;;;;;;6156186;23;20189;-68
2023/08/13 12:49:34;;;;;;;4.60;1.65;;;20.30;68.90;;;;;;6155408;23;20244;-68
2023/08/13 12:52:01;;;;;;;4.28;1.45;;;20.40;68.80;;;;;;6155749;23;20244;-68
2023/08/13 12:54:29;;;;;;;4.55;1.75;;;20.30;68.70;;;;;;6155711;23;20165;-68
2023/08/13 12:56:56;;;;;;;10.65;2.00;;;20.30;68.70;;;;;;6155621;23;20193;-68
2023/08/13 12:59:27;;;;;;;5.60;1.45;;;20.30;68.60;;;;;;6155453;23;20653;-68
2023/08/13 13:01:54;;;;;;;4.40;1.50;;;20.40;68.80;;;;;;6155686;23;20196;-68
2023/08/13 13:04:24;;;;;;;3.38;1.60;;;20.40;68.70;;;;;;6155608;23;20228;-68
2023/08/13 13:06:51;;;;;;;6.38;1.88;;;20.40;68.70;;;;;;6155548;23;20232;-69
2023/08/13 13:09:18;;;;;;;6.55;2.22;;;20.40;68.60;;;;;;6155545;23;20220;-69
2023/08/13 13:11:45;;;;;;;2.90;1.67;;;20.40;68.60;;;;;;6155493;23;20197;-69
2023/08/13 13:14:12;;;;;;;3.13;1.48;;;20.40;68.60;;;;;;6155186;23;20170;-69
2023/08/13 13:16:41;;;;;;;6.90;1.88;;;20.40;68.70;;;;;;6155426;23;20194;-68
2023/08/13 13:19:08;;;;;;;8.57;1.70;;;20.40;68.60;;;;;;6155399;23;20166;-68
2023/08/13 13:21:35;;;;;;;5.32;1.65;;;20.40;68.50;;;;;;6155227;23;20194;-68
2023/08/13 13:24:02;;;;;;;7.80;1.42;;;20.40;69.30;;;;;;6154941;23;20240;-68
2023/08/13 13:26:29;;;;;;;6.10;1.60;;;20.40;68.40;;;;;;6155109;23;20205;-68
2023/08/13 13:28:56;;;;;;;3.53;1.55;;;20.40;67.90;;;;;;6154801;23;20169;-58
2023/08/13 13:31:23;;;;;;;7.68;2.20;;;20.40;67.90;;;;;;6155129;23;20201;-68
2023/08/13 13:33:52;;;;;;;4.45;1.60;;;20.40;68.00;;;;;;6154812;23;20499;-68
2023/08/13 13:36:19;;;;;;;5.30;1.85;;;20.40;68.00;;;;;;6154669;23;20204;-68
2023/08/13 13:38:46;;;;;;;4.68;1.75;;;20.40;67.90;;;;;;6155100;23;20189;-68
2023/08/13 13:41:13;;;;;;;5.65;1.77;;;20.50;68.00;;;;;;6155209;23;20193;-68
2023/08/13 13:43:40;;;;;;;4.60;1.42;;;20.40;67.80;;;;;;6154388;23;20243;-68
2023/08/13 13:46:07;;;;;;;5.90;2.00;;;20.50;67.80;;;;;;6155370;23;20208;-67
2023/08/13 13:48:34;;;;;;;5.28;1.90;;;20.40;67.70;;;;;;6154720;23;20302;-68
2023/08/13 13:51:02;;;;;;;4.25;1.50;;;20.50;67.60;;;;;;6155547;23;20236;-68
2023/08/13 13:53:29;;;;;;;3.65;1.52;;;20.50;67.50;;;;;;6155010;23;20232;-68
2023/08/13 13:55:55;;;;;;;6.53;1.88;;;20.50;67.40;;;;;;6155051;23;20165;-68
2023/08/13 13:58:22;;;;;;;4.88;1.38;;;20.50;67.30;;;;;;6155187;23;20216;-68
2023/08/13 14:00:50;;;;;;;2.42;1.27;;;20.50;67.00;;;;;;6154730;23;20568;-68
2023/08/13 14:03:18;;;;;;;4.38;1.13;;;20.50;66.80;;;;;;6154720;23;20681;-69
2023/08/13 14:05:49;;;;;;;4.13;1.73;;;20.50;66.50;;;;;;6154907;23;20205;-68
2023/08/13 14:08:18;;;;;;;6.63;1.40;;;20.50;66.50;;;;;;6154774;23;20221;-68
2023/08/13 14:10:44;;;;;;;5.97;1.40;;;20.50;66.50;;;;;;6155290;23;20204;-69
2023/08/13 14:13:11;;;;;;;5.05;1.75;;;20.60;67.30;;;;;;6155177;23;20273;-68
2023/08/13 14:15:38;;;;;;;5.22;1.48;;;20.60;66.50;;;;;;6154664;23;20245;-68
2023/08/13 14:18:05;;;;;;;3.78;1.27;;;20.50;66.00;;;;;;6154784;23;20273;-68
2023/08/13 14:20:32;;;;;;;4.30;1.50;;;20.60;66.00;;;;;;6154849;23;20172;-71
2023/08/13 14:22:59;;;;;;;6.50;1.52;;;20.60;65.80;;;;;;6154907;23;20189;-71
2023/08/13 14:25:28;;;;;;;4.82;1.52;;;20.50;65.70;;;;;;6154304;23;20275;-65
2023/08/13 14:27:55;;;;;;;2.95;1.27;;;20.50;65.40;;;;;;6155080;23;20200;-70
2023/08/13 14:30:22;;;;;;;2.85;1.20;;;20.60;64.80;;;;;;6154951;23;20161;-71
2023/08/13 14:32:48;;;;;;;3.40;1.42;;;20.60;64.90;;;;;;6154661;23;20225;-68
2023/08/13 14:35:15;;;;;;;3.10;1.20;;;20.60;65.50;;;;;;6154805;23;20248;-68
2023/08/13 14:37:42;;;;;;;4.78;1.38;;;20.60;64.60;;;;;;6154888;23;20197;-68
2023/08/13 14:40:11;;;;;;;5.50;1.10;;;20.60;64.40;;;;;;6154447;23;20229;-68
2023/08/13 14:42:39;;;;;;;4.30;1.20;;;20.60;64.20;;;;;;6154330;23;20284;-68
2023/08/13 14:45:07;;;;;;;2.45;1.20;;;20.60;64.20;;;;;;6154924;23;20259;-63
2023/08/13 14:47:34;;;;;;;6.35;1.30;;;20.50;63.80;;;;;;6154762;23;20189;-69
2023/08/13 14:50:01;;;;;;;3.13;1.60;;;20.60;63.80;;;;;;6154810;23;20244;-68
2023/08/13 14:52:27;;;;;;;4.82;1.05;;;20.60;63.70;;;;;;6154868;23;20224;-68
2023/08/13 14:54:54;;;;;;;5.10;1.20;;;20.60;63.40;;;;;;6154555;23;20290;-68
2023/08/13 14:57:21;;;;;;;4.95;1.40;;;20.60;63.40;;;;;;6154586;23;20196;-68
2023/08/13 14:59:49;;;;;;;4.43;1.35;;;20.60;63.10;;;;;;6154853;23;20244;-69
2023/08/13 15:02:16;;;;;;;2.30;1.30;;;20.60;62.90;;;;;;6154730;23;20205;-68
2023/08/13 15:04:43;;;;;;;4.15;1.30;;;20.60;62.80;;;;;;6154049;23;20748;-69
2023/08/13 15:07:10;;;;;;;3.65;1.20;;;20.60;63.40;;;;;;6154677;23;20272;-70
2023/08/13 15:09:37;;;;;;;3.42;1.40;;;20.70;62.50;;;;;;6154628;23;20162;-71
2023/08/13 15:12:04;;;;;;;3.58;1.33;;;20.70;62.20;;;;;;6154745;23;20272;-71
2023/08/13 15:14:31;;;;;;;3.30;1.15;;;20.60;62.00;;;;;;6154651;23;20236;-73
2023/08/13 15:16:59;;;;;;;4.15;1.60;;;20.70;62.00;;;;;;6154232;23;20264;-73
2023/08/13 15:19:26;;;;;;;3.67;1.35;;;20.70;61.60;;;;;;6154622;23;20248;-74
2023/08/13 15:21:53;;;;;;;4.63;1.30;;;20.70;61.60;;;;;;6154650;23;20752;-74
2023/08/13 15:24:20;;;;;;;3.25;1.23;;;20.70;61.20;;;;;;6154556;23;20193;-74
2023/08/13 15:26:51;;;;;;;2.63;1.45;;;20.70;61.20;;;;;;6154535;23;20235;-74
2023/08/13 15:29:17;;;;;;;3.90;1.25;;;20.70;61.10;;;;;;6154382;23;20166;-76
2023/08/13 15:31:45;;;;;;;3.83;1.40;;;20.80;61.10;;;;;;6154412;23;20245;-69
2023/08/13 15:34:14;;;;;;;2.50;1.40;;;20.80;61.90;;;;;;6154199;23;20173;-76
2023/08/13 15:36:59;;;;;;;2.78;1.20;;;20.80;61.10;;;;;;6154381;23;20194;-76
2023/08/13 15:39:28;;;;;;;4.13;1.30;;;20.70;60.80;;;;;;6154540;23;20641;-76
2023/08/13 15:41:56;;;;;;;4.63;1.40;;;20.80;61.50;;;;;;6154028;23;20209;-74
2023/08/13 15:44:23;;;;;;;3.17;1.20;;;20.80;61.00;;;;;;6155616;23;20673;-76
2023/08/13 15:46:59;;;;;;;2.13;1.25;;;20.80;60.60;;;;;;6156413;23;20196;-76
2023/08/13 15:49:46;;;;;;;3.53;1.10;;;20.80;60.60;;;;;;6154495;23;20223;-74
2023/08/13 15:59:45;;;;;;;3.35;1.30;;;20.80;60.40;;;;;;6102270;23;20594;-70
2023/08/13 16:02:40;;;;;;;3.08;1.40;;;20.90;60.50;;;;;;6036550;23;20196;-70
2023/08/13 16:05:09;;;;;;;4.20;1.00;;;20.90;60.70;;;;;;6036736;23;20189;-68
2023/08/13 16:07:37;;;;;;;5.80;1.80;;;20.80;60.70;;;;;;6036802;23;20197;-70
2023/08/13 16:10:04;;;;;;;1.60;0.90;;;20.80;60.50;;;;;;6036787;23;20164;-69
2023/08/13 16:12:32;;;;;;;5.15;1.20;;;20.80;60.40;;;;;;6036775;23;20193;-70
2023/08/13 16:15:07;;;;;;;3.67;1.27;;;20.90;60.40;;;;;;6036680;23;20221;-69
2023/08/13 16:17:35;;;;;;;3.13;1.15;;;20.90;60.30;;;;;;6036851;23;20248;-69
2023/08/13 17:30:48;;;;;;;4.90;1.30;;;21.20;59.80;;;;;;5763681;24;20184;-69
2023/08/13 17:33:15;;;;;;;2.85;1.10;;;21.20;59.70;;;;;;5777829;24;20267;-69
2023/08/13 17:36:20;;;;;;;4.28;1.55;;;21.10;59.80;;;;;;5843081;24;20182;-69
2023/08/13 18:55:27;;;;;;;7.78;2.30;;;20.90;60.70;;;;;;5729682;24;20191;-75
2023/08/13 18:57:54;;;;;;;7.25;1.60;;;20.90;61.10;;;;;;5799042;24;20205;-75
2023/08/13 19:03:42;;;;;;;7.57;1.50;;;20.80;61.10;;;;;;5923873;24;20194;-74
2023/08/13 19:06:10;;;;;;;7.57;1.58;;;20.80;61.10;;;;;;5923808;24;20204;-74
2023/08/13 19:08:37;;;;;;;7.43;1.40;;;20.80;61.10;;;;;;5976066;23;20225;-71
2023/08/13 19:11:05;;;;;;;4.38;1.38;;;20.80;61.10;;;;;;6007489;23;20253;-70
2023/08/13 19:13:32;;;;;;;2.42;1.08;;;20.80;61.10;;;;;;6007253;23;20712;-70
2023/08/13 19:15:59;;;;;;;13.45;6.85;;;20.80;61.30;;;;;;6007337;23;20180;-70
2023/08/13 19:18:26;;;;;;;6.22;2.13;;;20.70;61.20;;;;;;6008066;23;20197;-68
2023/08/13 19:20:53;;;;;;;4.07;2.10;;;20.70;61.30;;;;;;6008759;23;20166;-68
2023/08/13 19:23:21;;;;;;;4.53;2.15;;;20.70;61.30;;;;;;6008877;23;20197;-67
2023/08/13 19:25:48;;;;;;;5.10;1.90;;;20.70;61.30;;;;;;6008626;23;20802;-67
2023/08/13 19:28:16;;;;;;;10.48;2.10;;;20.80;61.40;;;;;;6040665;23;20194;-68
2023/08/13 19:30:46;;;;;;;5.10;1.73;;;20.70;61.30;;;;;;6126876;23;20221;-68
2023/08/13 19:33:13;;;;;;;2.38;1.10;;;20.70;61.50;;;;;;6126729;23;20682;-68
2023/08/13 19:35:40;;;;;;;4.97;1.90;;;20.70;61.50;;;;;;6126866;23;20190;-68
2023/08/13 19:38:07;;;;;;;3.85;1.40;;;20.70;61.70;;;;;;6126649;23;20772;-58
2023/08/13 19:40:38;;;;;;;3.90;1.75;;;20.70;61.70;;;;;;6126878;23;20241;-68
2023/08/13 19:43:05;;;;;;;6.88;2.10;;;20.70;61.90;;;;;;6126625;23;20205;-68
2023/08/13 19:45:33;;;;;;;4.78;1.50;;;20.70;61.90;;;;;;6126597;23;20191;-68
2023/08/13 19:48:11;;;;;;;;;;;;;;;;;;;;;
2023/08/13 19:57:13;;;;;;;3.58;1.30;;;20.60;62.00;;;;;;5980793;23;20226;-67
2023/08/13 20:22:59;;;;;;;5.47;1.90;;;20.50;62.20;;;;;;5860912;24;20205;-68
2023/08/13 21:03:46;;;;;;;5.85;1.92;;;20.40;63.00;;;;;;5763770;24;20228;-67
2023/08/13 21:37:07;;;;;;;3.83;2.10;;;20.30;63.10;;;;;;5830345;24;20204;-70
2023/08/13 21:40:31;;;;;;;4.70;1.90;;;20.30;63.20;;;;;;5843067;24;20213;-70
2023/08/13 21:43:21;;;;;;;;;;;;;;;;;;;;;
2023/08/13 22:29:20;;;;;;;6.68;1.67;;;20.20;63.60;;;;;;6006605;23;20228;-63
2023/08/13 22:44:09;;;;;;;3.78;1.52;;;20.20;63.80;;;;;;5925357;23;20201;-70
2023/08/13 22:50:00;;;;;;;5.10;1.77;;;20.30;64.00;;;;;;5866058;24;20205;-70
2023/08/13 22:52:27;;;;;;;4.95;1.83;;;20.20;64.00;;;;;;5869256;24;20292;-70
2023/08/13 22:54:54;;;;;;;4.65;1.60;;;20.20;64.00;;;;;;5871353;24;20181;-70
2023/08/13 22:57:22;;;;;;;4.82;1.80;;;20.20;64.10;;;;;;5871402;24;20205;-70
2023/08/13 23:00:19;;;;;;;4.07;1.60;;;20.20;64.20;;;;;;5871244;24;20682;-69
2023/08/13 23:27:16;;;;;;;5.65;1.83;;;20.10;64.60;;;;;;6038299;23;20770;-70
2023/08/13 23:37:08;;;;;;;7.53;1.92;;;20.10;64.60;;;;;;6156241;23;20518;-71
2023/08/13 23:39:36;;;;;;;4.43;1.80;;;20.10;64.60;;;;;;6156596;23;20169;-70
2023/08/13 23:42:03;;;;;;;3.78;1.90;;;20.10;64.60;;;;;;6156488;23;20189;-69
2023/08/13 23:44:31;;;;;;;4.82;1.95;;;20.10;64.70;;;;;;6156160;23;20229;-70
2023/08/13 23:47:55;;;;;;;;;;;;;;;;;;;;;
2023/08/13 23:53:18;;;;;;;4.93;1.50;;;20.10;64.80;;;;;;6094707;23;20190;-70
2023/08/13 23:55:45;;;;;;;4.55;1.80;;;20.10;64.80;;;;;;6094181;23;20170;-69
2023/08/13 23:58:12;;;;;;;2.35;1.55;;;20.10;64.80;;;;;;6152453;23;20189;-70
